Time;durP1;ratioP1;P1;durP2;ratioP2;P2;SDS_P1;SDS_P2;PMS_P1;PMS_P2;Temp;Humidity;BMP_temperature;BMP_pressure;BME280_temperature;BME280_humidity;BME280_pressure;Samples;Min_cycle;Max_cycle;Signal;HPM_P1;HPM_P2
2022/04/10 00:02:08;;;;;;;5.07;3.50;;;2.00;99.90;;;;;;5014404;28;20503;-55
2022/04/10 00:04:34;;;;;;;6.30;3.17;;;2.00;99.90;;;;;;5014375;28;20507;-54
2022/04/10 00:07:03;;;;;;;6.43;3.67;;;2.00;99.90;;;;;;5013751;28;20525;-56
2022/04/10 00:09:30;;;;;;;7.97;3.63;;;2.00;99.90;;;;;;5014283;28;20959;-54
2022/04/10 00:11:56;;;;;;;8.00;4.10;;;2.00;99.90;;;;;;5013944;28;20979;-56
2022/04/10 00:14:23;;;;;;;8.43;3.67;;;2.00;99.90;;;;;;5014385;28;20833;-55
2022/04/10 00:16:50;;;;;;;9.03;3.73;;;1.90;99.90;;;;;;5013717;28;20551;-53
2022/04/10 00:19:16;;;;;;;6.93;4.00;;;1.90;99.90;;;;;;5014028;28;20529;-54
2022/04/10 00:21:45;;;;;;;7.90;3.63;;;1.90;99.90;;;;;;5013836;28;20455;-55
2022/04/10 00:24:13;;;;;;;5.23;4.10;;;1.80;99.90;;;;;;5013778;28;20457;-53
2022/04/10 00:26:40;;;;;;;7.90;4.00;;;1.80;99.90;;;;;;5013794;28;20807;-51
2022/04/10 00:29:07;;;;;;;9.67;4.43;;;1.80;99.90;;;;;;5013646;28;20547;-55
2022/04/10 00:31:34;;;;;;;5.40;3.53;;;1.80;1.00;;;;;;5013939;28;20463;-56
2022/04/10 00:34:00;;;;;;;7.53;3.97;;;1.70;1.00;;;;;;5013464;28;20953;-56
2022/04/10 00:36:27;;;;;;;8.00;3.90;;;1.70;1.00;;;;;;5013239;28;20482;-56
2022/04/10 00:38:54;;;;;;;9.50;4.50;;;1.70;1.00;;;;;;5013261;28;20532;-55
2022/04/10 00:41:22;;;;;;;7.50;4.60;;;1.70;1.00;;;;;;5013602;28;20507;-56
2022/04/10 00:44:05;;;;;;;10.47;4.40;;;1.70;1.00;;;;;;5013611;28;20450;-55
2022/04/10 00:46:33;;;;;;;8.97;4.30;;;1.70;1.00;;;;;;5013292;28;20494;-53
2022/04/10 00:48:59;;;;;;;7.23;4.00;;;1.70;1.00;;;;;;5013422;28;20816;-54
2022/04/10 00:51:43;;;;;;;13.00;4.60;;;1.80;1.00;;;;;;5013622;28;20452;-54
2022/04/10 00:54:15;;;;;;;7.77;4.43;;;1.80;1.00;;;;;;5013698;28;20455;-56
2022/04/10 00:56:43;;;;;;;8.23;4.20;;;1.80;1.00;;;;;;5012812;28;20499;-55
2022/04/10 00:59:10;;;;;;;6.23;3.60;;;1.80;1.00;;;;;;5013290;28;20518;-54
2022/04/10 01:01:38;;;;;;;9.63;4.80;;;1.70;1.00;;;;;;5012882;28;20947;-52
2022/04/10 01:04:06;;;;;;;13.13;4.60;;;1.70;1.00;;;;;;5013359;28;20464;-52
2022/04/10 01:06:33;;;;;;;9.67;4.47;;;1.70;1.00;;;;;;5012740;28;20493;-53
2022/04/10 01:09:00;;;;;;;10.17;4.73;;;1.70;1.00;;;;;;5013269;28;20528;-54
2022/04/10 01:11:29;;;;;;;12.80;5.37;;;1.70;1.00;;;;;;5012940;28;20461;-53
2022/04/10 01:13:57;;;;;;;6.03;4.00;;;1.60;1.00;;;;;;5013010;28;20462;-55
2022/04/10 01:16:24;;;;;;;10.10;4.90;;;1.70;1.00;;;;;;5012138;28;20489;-56
2022/04/10 01:18:51;;;;;;;13.87;4.60;;;1.70;1.00;;;;;;5012935;28;20455;-53
2022/04/10 01:21:23;;;;;;;7.03;3.93;;;1.60;1.00;;;;;;5013129;28;20582;-54
2022/04/10 01:23:52;;;;;;;9.53;4.53;;;1.60;1.00;;;;;;5012773;28;20564;-55
2022/04/10 01:26:19;;;;;;;12.87;4.83;;;1.60;1.00;;;;;;5012420;28;20442;-55
2022/04/10 01:28:59;;;;;;;8.73;4.77;;;1.60;1.00;;;;;;5012414;28;20525;-53
2022/04/10 01:31:26;;;;;;;8.80;4.73;;;1.60;1.00;;;;;;5012683;28;20949;-56
2022/04/10 01:33:55;;;;;;;9.10;4.80;;;1.60;1.00;;;;;;5012470;28;21011;-57
2022/04/10 01:36:24;;;;;;;8.03;4.20;;;1.60;1.00;;;;;;5012288;28;20487;-55
2022/04/10 01:38:53;;;;;;;9.67;3.87;;;1.60;1.00;;;;;;5011968;28;20452;-55
2022/04/10 01:41:20;;;;;;;12.13;4.47;;;1.60;1.00;;;;;;5012449;28;20443;-57
2022/04/10 01:43:47;;;;;;;9.43;4.60;;;1.60;1.00;;;;;;5012667;28;20463;-55
2022/04/10 01:46:14;;;;;;;12.53;4.33;;;1.70;1.00;;;;;;5012061;28;20464;-56
2022/04/10 01:48:42;;;;;;;9.90;4.27;;;1.70;1.00;;;;;;5012405;28;20455;-53
2022/04/10 01:51:09;;;;;;;10.50;5.43;;;1.60;1.00;;;;;;5012368;28;20454;-56
2022/04/10 01:53:36;;;;;;;9.90;4.43;;;1.70;1.00;;;;;;5011654;28;21060;-57
2022/04/10 01:56:05;;;;;;;10.13;4.20;;;1.70;1.00;;;;;;5011691;28;20986;-56
2022/04/10 01:58:34;;;;;;;8.23;4.03;;;1.70;1.00;;;;;;5012433;28;20541;-54
2022/04/10 02:01:02;;;;;;;7.23;3.93;;;1.60;1.00;;;;;;5012165;28;20509;-52
2022/04/10 02:03:28;;;;;;;11.37;5.13;;;1.60;1.00;;;;;;5012366;28;20455;-54
2022/04/10 02:05:56;;;;;;;9.77;4.27;;;1.70;1.00;;;;;;5011730;28;20452;-53
2022/04/10 02:08:23;;;;;;;7.13;3.83;;;1.60;1.00;;;;;;5011954;28;20558;-56
2022/04/10 02:10:49;;;;;;;6.87;3.80;;;1.60;1.00;;;;;;5012377;28;20451;-57
2022/04/10 02:13:19;;;;;;;9.90;4.83;;;1.60;1.00;;;;;;5012054;28;20451;-55
2022/04/10 02:15:45;;;;;;;10.17;4.13;;;1.50;1.00;;;;;;5012064;28;20483;-55
2022/04/10 02:18:12;;;;;;;10.87;4.77;;;1.50;1.00;;;;;;5011442;28;20477;-56
2022/04/10 02:20:39;;;;;;;10.23;4.53;;;1.50;1.00;;;;;;5012138;28;20460;-53
2022/04/10 02:23:06;;;;;;;8.87;4.40;;;1.40;1.00;;;;;;5012014;28;20516;-55
2022/04/10 02:25:33;;;;;;;9.60;4.83;;;1.40;1.00;;;;;;5012282;28;20465;-53
2022/04/10 02:27:59;;;;;;;8.57;4.50;;;1.30;1.00;;;;;;5011576;28;20470;-52
2022/04/10 02:30:27;;;;;;;6.83;4.37;;;1.30;1.00;;;;;;5011976;28;20455;-54
2022/04/10 02:32:54;;;;;;;6.27;4.07;;;1.30;1.00;;;;;;5012107;28;20455;-57
2022/04/10 02:35:21;;;;;;;9.27;4.77;;;1.30;1.00;;;;;;5012446;28;20452;-57
2022/04/10 02:37:47;;;;;;;11.23;4.70;;;1.30;1.00;;;;;;5012061;28;20504;-57
2022/04/10 02:40:15;;;;;;;7.13;4.80;;;1.30;1.00;;;;;;5011825;28;20455;-57
2022/04/10 02:42:43;;;;;;;10.33;5.13;;;1.30;1.00;;;;;;5012052;28;20896;-57
2022/04/10 02:45:11;;;;;;;13.57;4.77;;;1.30;1.00;;;;;;5011637;28;20501;-56
2022/04/10 02:47:39;;;;;;;10.93;5.23;;;1.30;1.00;;;;;;5011492;28;20467;-53
2022/04/10 02:50:06;;;;;;;7.17;5.00;;;1.30;1.00;;;;;;5011366;28;20458;-55
2022/04/10 02:52:33;;;;;;;9.30;4.80;;;1.30;1.00;;;;;;5011719;28;20941;-57
2022/04/10 02:55:00;;;;;;;9.20;5.10;;;1.30;1.00;;;;;;5011712;28;20455;-57
2022/04/10 02:57:26;;;;;;;6.43;4.43;;;1.30;1.00;;;;;;5011274;28;20493;-57
2022/04/10 02:59:53;;;;;;;9.60;4.80;;;1.30;1.00;;;;;;5011792;28;20462;-55
2022/04/10 03:02:20;;;;;;;8.60;4.90;;;1.30;1.00;;;;;;5011443;28;20446;-57
2022/04/10 03:04:48;;;;;;;8.57;4.30;;;1.30;1.00;;;;;;5013660;28;20519;-57
2022/04/10 03:07:14;;;;;;;11.03;4.87;;;1.30;1.00;;;;;;5015047;28;20479;-55
2022/04/10 03:09:41;;;;;;;8.40;4.83;;;1.30;1.00;;;;;;5015566;28;20455;-57
2022/04/10 03:12:09;;;;;;;10.87;4.93;;;1.30;1.00;;;;;;5015464;28;20514;-55
2022/04/10 03:14:36;;;;;;;8.50;4.70;;;1.20;1.00;;;;;;5015218;28;21018;-57
2022/04/10 03:17:03;;;;;;;9.73;4.77;;;1.20;1.00;;;;;;5014279;28;20496;-57
2022/04/10 03:19:29;;;;;;;8.47;4.67;;;1.20;1.00;;;;;;5015373;28;20455;-54
2022/04/10 03:21:57;;;;;;;6.97;4.53;;;1.20;1.00;;;;;;5015219;28;20450;-55
2022/04/10 03:24:24;;;;;;;9.60;4.63;;;1.20;1.00;;;;;;5015034;28;20512;-56
2022/04/10 03:26:51;;;;;;;9.13;5.37;;;1.20;1.00;;;;;;5014702;28;20471;-56
2022/04/10 03:29:18;;;;;;;8.17;5.23;;;1.20;1.00;;;;;;5014740;28;20501;-57
2022/04/10 03:31:45;;;;;;;11.43;5.13;;;1.20;1.00;;;;;;5014844;28;20458;-56
2022/04/10 03:34:11;;;;;;;8.93;4.97;;;1.10;1.00;;;;;;5014959;28;20861;-57
2022/04/10 03:36:38;;;;;;;8.30;4.87;;;1.10;1.00;;;;;;5014399;28;20907;-55
2022/04/10 03:39:06;;;;;;;8.60;5.00;;;1.10;1.00;;;;;;5014695;28;20868;-57
2022/04/10 03:41:33;;;;;;;9.87;5.03;;;1.10;1.00;;;;;;5014760;28;20940;-56
2022/04/10 03:44:00;;;;;;;8.30;5.40;;;1.10;1.00;;;;;;5014600;28;20477;-56
2022/04/10 03:46:26;;;;;;;8.77;5.07;;;1.10;1.00;;;;;;5013913;28;20909;-54
2022/04/10 03:48:53;;;;;;;10.77;5.07;;;1.00;1.00;;;;;;5014817;28;20869;-57
2022/04/10 03:51:20;;;;;;;12.83;5.50;;;1.00;1.00;;;;;;5014359;28;20450;-57
2022/04/10 03:53:47;;;;;;;10.30;5.47;;;1.00;1.00;;;;;;5014657;28;20519;-54
2022/04/10 03:56:15;;;;;;;11.23;5.27;;;1.10;1.00;;;;;;5013872;28;20512;-55
2022/04/10 03:58:41;;;;;;;11.67;5.93;;;1.10;1.00;;;;;;5014328;28;20516;-54
2022/04/10 04:01:09;;;;;;;9.60;5.60;;;1.20;1.00;;;;;;5014141;28;20458;-56
2022/04/10 04:03:36;;;;;;;14.03;5.43;;;1.10;1.00;;;;;;5014524;28;20855;-53
2022/04/10 04:06:03;;;;;;;10.23;5.70;;;1.20;1.00;;;;;;5014136;28;20542;-57
2022/04/10 04:08:29;;;;;;;12.20;5.40;;;1.20;1.00;;;;;;5014106;28;20474;-56
2022/04/10 04:10:56;;;;;;;12.53;5.97;;;1.20;1.00;;;;;;5014192;28;20972;-53
2022/04/10 04:13:24;;;;;;;10.43;5.87;;;1.10;1.00;;;;;;5013771;28;20454;-55
2022/04/10 04:15:52;;;;;;;9.87;5.90;;;1.10;1.00;;;;;;5013361;28;20950;-56
2022/04/10 04:18:18;;;;;;;11.33;6.17;;;1.10;1.00;;;;;;5013721;28;21132;-53
2022/04/10 04:20:45;;;;;;;10.13;5.30;;;1.10;1.00;;;;;;5014142;28;20517;-56
2022/04/10 04:23:12;;;;;;;11.00;6.17;;;1.10;1.00;;;;;;5013861;28;20516;-55
2022/04/10 04:25:38;;;;;;;7.73;5.10;;;1.10;1.00;;;;;;5013786;28;20956;-56
2022/04/10 04:28:06;;;;;;;12.03;6.10;;;1.10;1.00;;;;;;5013185;28;20568;-54
2022/04/10 04:30:33;;;;;;;9.23;5.23;;;1.10;1.00;;;;;;5014415;28;21011;-57
2022/04/10 04:33:02;;;;;;;16.83;6.07;;;1.10;1.00;;;;;;5014314;28;20458;-55
2022/04/10 04:35:28;;;;;;;12.33;6.03;;;1.10;1.00;;;;;;5013652;28;20446;-55
2022/04/10 04:37:56;;;;;;;10.63;5.30;;;1.00;1.00;;;;;;5013197;28;21043;-55
2022/04/10 04:40:22;;;;;;;10.57;5.33;;;1.00;1.00;;;;;;5013374;28;20500;-55
2022/04/10 04:42:49;;;;;;;14.43;6.20;;;1.00;1.00;;;;;;5013855;28;20458;-54
2022/04/10 04:45:16;;;;;;;13.00;5.63;;;1.00;1.00;;;;;;5013518;28;20531;-55
2022/04/10 04:47:45;;;;;;;10.07;5.47;;;1.00;1.00;;;;;;5013183;28;20501;-55
2022/04/10 04:50:11;;;;;;;10.97;5.90;;;1.00;1.00;;;;;;5013243;28;20450;-56
2022/04/10 04:52:38;;;;;;;8.80;5.60;;;1.00;1.00;;;;;;5013512;28;20478;-56
2022/04/10 04:55:06;;;;;;;11.17;5.90;;;1.00;1.00;;;;;;5013279;28;20503;-56
2022/04/10 04:57:32;;;;;;;15.47;6.53;;;1.00;1.00;;;;;;5012852;28;20494;-55
2022/04/10 04:59:59;;;;;;;10.00;6.23;;;1.00;1.00;;;;;;5013510;28;20469;-57
2022/04/10 05:02:26;;;;;;;13.90;6.57;;;1.00;1.00;;;;;;5013408;28;20516;-58
2022/04/10 05:04:54;;;;;;;12.37;6.03;;;1.00;1.00;;;;;;5013478;28;20458;-58
2022/04/10 05:07:21;;;;;;;16.17;5.93;;;1.00;1.00;;;;;;5012752;28;20469;-58
2022/04/10 05:09:48;;;;;;;12.47;6.63;;;1.00;1.00;;;;;;5013621;28;20865;-57
2022/04/10 05:12:14;;;;;;;14.07;6.77;;;0.90;1.00;;;;;;5012934;28;20450;-55
2022/04/10 05:14:41;;;;;;;17.37;6.43;;;1.00;1.00;;;;;;5013133;28;20450;-55
2022/04/10 05:17:08;;;;;;;15.70;6.50;;;1.00;1.00;;;;;;5012384;28;20995;-56
2022/04/10 05:19:34;;;;;;;14.90;7.03;;;1.00;1.00;;;;;;5012825;28;20450;-56
2022/04/10 05:22:02;;;;;;;13.07;6.33;;;1.10;1.00;;;;;;5012875;28;20454;-57
2022/04/10 05:24:29;;;;;;;16.30;6.83;;;1.10;1.00;;;;;;5012835;28;20455;-54
2022/04/10 05:26:56;;;;;;;15.50;6.87;;;1.20;1.00;;;;;;5012190;28;20501;-56
2022/04/10 05:29:22;;;;;;;12.23;6.70;;;1.20;1.00;;;;;;5012401;28;20529;-54
2022/04/10 05:31:49;;;;;;;12.30;6.43;;;1.20;1.00;;;;;;5012826;28;20526;-55
2022/04/10 05:34:16;;;;;;;12.53;6.50;;;1.30;1.00;;;;;;5012597;28;20479;-56
2022/04/10 05:36:43;;;;;;;10.90;6.67;;;1.30;1.00;;;;;;5011893;28;20474;-56
2022/04/10 05:39:11;;;;;;;12.33;6.40;;;1.40;1.00;;;;;;5012657;28;20454;-55
2022/04/10 05:41:37;;;;;;;11.97;6.07;;;1.50;1.00;;;;;;5012723;28;20452;-57
2022/04/10 05:44:05;;;;;;;13.43;6.83;;;1.60;1.00;;;;;;5012736;28;20509;-59
2022/04/10 05:46:31;;;;;;;16.67;6.50;;;1.60;1.00;;;;;;5011878;28;20827;-56
2022/04/10 05:48:58;;;;;;;14.57;7.33;;;1.70;1.00;;;;;;5012520;28;20511;-55
2022/04/10 05:51:24;;;;;;;16.20;6.77;;;1.70;1.00;;;;;;5012289;28;20534;-56
2022/04/10 05:53:51;;;;;;;13.23;6.83;;;1.80;1.00;;;;;;5012796;28;20453;-55
2022/04/10 05:56:19;;;;;;;13.30;5.80;;;1.80;1.00;;;;;;5012306;28;20874;-57
2022/04/10 05:58:46;;;;;;;17.30;6.07;;;1.90;1.00;;;;;;5012697;28;20492;-57
2022/04/10 06:01:13;;;;;;;9.23;6.23;;;2.00;1.00;;;;;;5012372;28;20459;-58
2022/04/10 06:03:40;;;;;;;12.17;6.20;;;2.00;1.00;;;;;;5012158;28;20458;-57
2022/04/10 06:06:06;;;;;;;11.43;6.93;;;2.20;99.90;;;;;;5012103;28;20461;-56
2022/04/10 06:08:33;;;;;;;14.30;6.77;;;2.20;99.90;;;;;;5012039;28;20496;-57
2022/04/10 06:11:00;;;;;;;13.13;6.70;;;2.30;99.90;;;;;;5012258;28;20455;-57
2022/04/10 06:13:28;;;;;;;12.87;6.63;;;2.40;99.90;;;;;;5012040;28;20464;-57
2022/04/10 06:15:54;;;;;;;10.57;5.90;;;2.50;99.90;;;;;;5011930;28;20554;-56
2022/04/10 06:18:21;;;;;;;13.87;6.27;;;2.60;99.90;;;;;;5011541;28;20555;-58
2022/04/10 06:20:47;;;;;;;15.50;6.60;;;2.70;10.80;;;;;;5012329;28;20531;-57
2022/04/10 06:23:14;;;;;;;18.10;7.43;;;2.80;1.00;;;;;;5012149;28;20857;-57
2022/04/10 06:25:41;;;;;;;17.70;7.00;;;2.80;1.00;;;;;;5012135;28;20871;-58
2022/04/10 06:28:09;;;;;;;14.00;6.30;;;2.90;99.90;;;;;;5011846;28;20531;-57
2022/04/10 06:30:37;;;;;;;14.57;6.70;;;3.00;99.90;;;;;;5011851;28;21046;-58
2022/04/10 06:33:04;;;;;;;9.13;6.10;;;3.10;1.00;;;;;;5011810;28;20445;-57
2022/04/10 06:35:30;;;;;;;11.97;6.57;;;3.30;69.50;;;;;;5011983;28;20450;-56
2022/04/10 06:37:57;;;;;;;14.57;6.80;;;3.30;1.00;;;;;;5011523;28;20486;-56
2022/04/10 06:40:24;;;;;;;14.80;6.67;;;3.40;63.10;;;;;;5014976;28;20450;-58
2022/04/10 06:42:50;;;;;;;9.87;5.97;;;3.50;99.90;;;;;;5016102;28;20872;-57
2022/04/10 06:45:17;;;;;;;11.53;6.40;;;3.60;99.90;;;;;;5015645;28;20446;-57
2022/04/10 06:47:45;;;;;;;18.50;6.33;;;3.70;99.90;;;;;;5015650;28;20521;-57
2022/04/10 06:50:13;;;;;;;16.87;6.53;;;3.80;1.00;;;;;;5016000;28;20503;-59
2022/04/10 06:52:40;;;;;;;13.00;6.80;;;4.00;99.90;;;;;;5015657;28;20944;-57
2022/04/10 06:55:07;;;;;;;10.57;6.53;;;4.10;99.90;;;;;;5015847;28;20450;-58
2022/04/10 06:57:34;;;;;;;13.43;5.60;;;4.20;99.90;;;;;;5014936;28;20988;-57
2022/04/10 07:00:01;;;;;;;12.07;6.33;;;4.30;99.90;;;;;;5015637;28;20453;-58
2022/04/10 07:02:27;;;;;;;15.57;5.90;;;4.40;99.90;;;;;;5015469;28;20454;-58
2022/04/10 07:04:55;;;;;;;10.10;6.07;;;4.50;99.90;;;;;;5015830;28;20512;-57
2022/04/10 07:07:22;;;;;;;11.80;6.63;;;4.70;99.90;;;;;;5014921;28;20475;-58
2022/04/10 07:09:48;;;;;;;11.00;5.97;;;4.80;99.90;;;;;;5015356;28;20454;-58
2022/04/10 07:12:15;;;;;;;10.57;6.10;;;4.90;99.90;;;;;;5015302;28;20519;-59
2022/04/10 07:14:42;;;;;;;14.43;6.47;;;5.00;99.90;;;;;;5014940;28;20210;-59
2022/04/10 07:17:09;;;;;;;20.40;6.97;;;5.10;99.90;;;;;;5014905;28;20482;-58
2022/04/10 07:19:36;;;;;;;14.83;6.20;;;5.20;1.00;;;;;;5015318;28;20458;-58
2022/04/10 07:24:48;;;;;;;12.73;5.77;;;5.40;99.90;;;;;;5014918;28;20449;-57
2022/04/10 07:27:15;;;;;;;10.50;5.43;;;5.50;99.90;;;;;;5014816;28;20717;-59
2022/04/10 07:29:41;;;;;;;12.50;6.77;;;5.60;99.90;;;;;;5015132;28;20241;-59
2022/04/10 07:32:09;;;;;;;12.13;5.67;;;5.70;1.00;;;;;;5015103;28;20211;-59
2022/04/10 07:34:35;;;;;;;16.17;5.80;;;5.80;1.00;;;;;;5014857;28;20211;-59
2022/04/10 07:37:04;;;;;;;13.80;6.10;;;5.90;99.90;;;;;;5014579;28;20238;-59
2022/04/10 07:39:31;;;;;;;9.93;5.87;;;6.00;1.00;;;;;;5014599;28;20705;-58
2022/04/10 07:41:57;;;;;;;12.50;5.33;;;6.10;1.00;;;;;;5014744;28;20210;-59
2022/04/10 07:44:24;;;;;;;10.83;4.40;;;6.30;1.00;;;;;;5014745;28;20207;-55
2022/04/10 07:49:35;;;;;;;8.73;5.07;;;6.70;12.70;;;;;;5014913;28;20201;-57
2022/04/10 07:52:01;;;;;;;6.57;3.93;;;6.80;1.00;;;;;;5013458;28;20214;-58
2022/04/10 07:54:29;;;;;;;5.90;4.07;;;7.00;99.90;;;;;;5014701;28;20218;-57
2022/04/10 07:56:56;;;;;;;10.00;4.37;;;7.10;99.90;;;;;;5014440;28;20335;-58
2022/04/10 07:59:23;;;;;;;7.60;4.13;;;7.10;99.90;;;;;;5014642;28;20227;-59
2022/04/10 08:01:50;;;;;;;5.80;3.00;;;7.20;99.90;;;;;;5014602;28;20234;-58
2022/04/10 08:04:16;;;;;;;6.33;3.07;;;7.20;1.00;;;;;;5014199;28;20207;-56
2022/04/10 08:06:43;;;;;;;8.33;3.53;;;7.20;1.00;;;;;;5012731;28;20721;-59
2022/04/10 08:09:10;;;;;;;10.40;3.30;;;7.30;1.00;;;;;;5004133;28;20215;-63
2022/04/10 08:11:39;;;;;;;7.23;3.43;;;7.40;1.00;;;;;;4994468;28;20207;-58
2022/04/10 08:14:06;;;;;;;6.33;2.73;;;7.50;1.00;;;;;;4994251;28;20270;-59
2022/04/10 08:16:32;;;;;;;7.27;2.57;;;7.30;1.00;;;;;;4993846;28;20254;-60
2022/04/10 08:18:59;;;;;;;5.70;2.60;;;7.40;1.00;;;;;;4993833;28;20276;-55
2022/04/10 08:21:25;;;;;;;5.67;2.90;;;7.60;1.00;;;;;;4994021;28;20215;-58
2022/04/10 08:23:53;;;;;;;6.30;3.10;;;7.90;1.00;;;;;;4994357;28;20207;-60
2022/04/10 08:26:19;;;;;;;7.93;3.37;;;8.10;1.00;;;;;;4993438;28;20594;-56
2022/04/10 08:28:47;;;;;;;8.63;3.27;;;8.30;1.00;;;;;;4993889;28;20682;-58
2022/04/10 08:31:14;;;;;;;6.90;3.43;;;8.60;99.90;;;;;;4993716;28;20678;-56
2022/04/10 08:33:40;;;;;;;5.23;2.90;;;8.20;99.90;;;;;;4993833;28;20590;-58
2022/04/10 08:36:08;;;;;;;9.17;2.30;;;8.20;99.90;;;;;;4992702;28;20211;-59
2022/04/10 08:38:35;;;;;;;7.63;3.00;;;8.10;99.90;;;;;;4993518;28;20242;-59
2022/04/10 08:41:03;;;;;;;10.50;2.77;;;8.10;99.90;;;;;;4993833;28;20255;-58
2022/04/10 08:43:31;;;;;;;9.23;2.87;;;8.40;99.90;;;;;;4993675;28;20262;-58
2022/04/10 08:45:59;;;;;;;7.67;3.13;;;8.70;99.90;;;;;;4993686;28;20278;-58
2022/04/10 08:48:26;;;;;;;6.23;2.77;;;8.60;99.90;;;;;;5040277;23;20238;-58
2022/04/10 08:50:55;;;;;;;7.13;2.17;;;8.50;99.90;;;;;;5033120;28;20209;-61
2022/04/10 08:53:23;;;;;;;8.03;2.77;;;8.50;99.90;;;;;;5032950;28;20210;-62
2022/04/10 08:55:49;;;;;;;4.93;2.57;;;8.50;99.90;;;;;;5032930;28;20301;-61
2022/04/10 08:58:16;;;;;;;5.97;2.57;;;8.70;99.90;;;;;;5032289;28;20238;-60
2022/04/10 09:00:43;;;;;;;8.23;2.70;;;8.60;99.90;;;;;;5032521;28;20210;-60
2022/04/10 09:03:12;;;;;;;6.67;2.47;;;8.70;99.90;;;;;;5032894;28;20300;-61
2022/04/10 09:05:40;;;;;;;5.60;2.00;;;8.80;99.90;;;;;;5032678;28;20683;-61
2022/04/10 09:08:09;;;;;;;3.10;1.63;;;8.70;99.90;;;;;;5032372;28;20219;-61
2022/04/10 09:10:54;;;;;;;3.00;1.43;;;8.70;99.90;;;;;;5032679;28;20218;-57
2022/04/10 09:13:26;;;;;;;2.37;1.47;;;8.40;99.90;;;;;;5032159;28;20210;-59
2022/04/10 09:15:53;;;;;;;7.83;2.37;;;8.40;99.90;;;;;;5032365;28;20246;-57
2022/04/10 09:18:21;;;;;;;7.17;1.80;;;8.40;99.90;;;;;;5032482;28;20237;-57
2022/04/10 09:21:06;;;;;;;5.47;2.00;;;8.50;99.90;;;;;;5032049;28;20202;-59
2022/04/10 09:23:33;;;;;;;5.80;2.03;;;8.50;99.90;;;;;;5033482;28;20302;-55
2022/04/10 09:25:59;;;;;;;3.37;2.10;;;8.60;99.90;;;;;;5032670;28;20700;-59
2022/04/10 09:28:42;;;;;;;4.63;2.00;;;8.50;99.90;;;;;;5032335;28;20284;-59
2022/04/10 09:31:29;;;;;;;6.40;2.50;;;8.30;99.90;;;;;;5032874;28;20300;-56
2022/04/10 09:33:59;;;;;;;3.07;2.13;;;8.00;99.90;;;;;;5032074;28;20293;-58
2022/04/10 09:36:34;;;;;;;5.20;2.30;;;7.80;99.90;;;;;;5031589;28;21012;-55
2022/04/10 09:39:02;;;;;;;5.07;2.37;;;7.80;99.90;;;;;;5031710;28;20283;-56
2022/04/10 09:41:28;;;;;;;6.80;2.53;;;7.50;99.90;;;;;;5032187;28;20218;-57
2022/04/10 09:44:00;;;;;;;6.10;2.33;;;7.60;99.90;;;;;;5032281;28;20275;-52
2022/04/10 09:46:26;;;;;;;3.70;2.00;;;7.50;99.90;;;;;;5031578;28;20214;-58
2022/04/10 09:48:53;;;;;;;5.50;2.07;;;7.20;99.90;;;;;;5031522;28;20210;-58
2022/04/10 09:51:21;;;;;;;7.17;2.30;;;7.10;99.90;;;;;;5031592;28;20775;-54
2022/04/10 09:54:02;;;;;;;3.03;2.20;;;7.30;99.90;;;;;;5032137;28;20210;-53
2022/04/10 09:56:29;;;;;;;10.03;2.83;;;7.80;1.00;;;;;;5031217;28;20213;-60
2022/04/10 09:58:58;;;;;;;8.50;2.97;;;8.10;99.90;;;;;;5031331;28;20317;-59
2022/04/10 10:01:26;;;;;;;8.47;2.90;;;8.30;99.90;;;;;;5031292;28;20276;-58
2022/04/10 10:03:55;;;;;;;7.23;2.60;;;8.20;99.90;;;;;;5031730;28;20354;-59
2022/04/10 10:06:24;;;;;;;5.60;2.50;;;8.30;99.90;;;;;;5031222;28;20206;-58
2022/04/10 10:08:52;;;;;;;7.43;3.00;;;8.40;99.90;;;;;;5031358;28;20301;-59
2022/04/10 10:11:20;;;;;;;4.33;2.30;;;8.30;99.90;;;;;;5031549;28;20305;-59
2022/04/10 10:13:49;;;;;;;5.17;2.33;;;8.40;99.90;;;;;;5030854;28;20748;-59
2022/04/10 10:16:18;;;;;;;6.67;2.20;;;8.60;99.90;;;;;;5031272;28;20256;-58
2022/04/10 10:18:45;;;;;;;4.83;2.33;;;8.80;99.90;;;;;;5031259;28;20218;-61
2022/04/10 10:21:14;;;;;;;5.23;1.97;;;8.90;99.90;;;;;;5031444;28;20202;-59
2022/04/10 10:23:47;;;;;;;4.60;1.93;;;9.20;99.90;;;;;;5031520;28;20214;-62
2022/04/10 10:26:28;;;;;;;4.60;1.80;;;9.50;99.90;;;;;;5030912;28;20211;-66
2022/04/10 10:29:13;;;;;;;2.87;1.43;;;9.70;99.90;;;;;;5031599;28;20348;-64
2022/04/10 10:32:08;;;;;;;2.87;1.53;;;9.80;79.40;;;;;;5031351;28;20215;-62
2022/04/10 10:34:35;;;;;;;4.63;1.60;;;9.90;39.00;;;;;;5031174;28;20319;-62
2022/04/10 10:37:03;;;;;;;3.10;1.50;;;9.80;33.10;;;;;;5030932;28;20237;-61
2022/04/10 10:39:33;;;;;;;2.90;1.53;;;9.60;37.80;;;;;;5030889;28;20234;-61
2022/04/10 10:42:10;;;;;;;2.13;1.20;;;9.50;50.20;;;;;;5031181;28;20688;-61
2022/04/10 10:44:58;;;;;;;5.63;1.73;;;9.40;15.00;;;;;;5030704;28;20203;-56
2022/04/10 10:47:26;;;;;;;3.77;1.40;;;9.30;20.40;;;;;;5026924;28;20310;-56
2022/04/10 10:49:54;;;;;;;2.80;1.20;;;9.50;9.40;;;;;;5031599;28;20629;-57
2022/04/10 10:52:21;;;;;;;3.13;0.93;;;9.50;15.40;;;;;;5031351;28;20339;-57
2022/04/10 10:54:54;;;;;;;2.77;1.13;;;9.50;7.40;;;;;;5031221;28;20677;-57
2022/04/10 10:57:32;;;;;;;2.47;1.10;;;9.20;6.50;;;;;;5030863;28;20227;-58
2022/04/10 11:00:12;;;;;;;1.50;1.13;;;9.40;10.20;;;;;;5031206;28;20279;-61
2022/04/10 11:02:39;;;;;;;0.97;0.83;;;9.80;27.60;;;;;;5031134;28;20206;-61
2022/04/10 11:05:07;;;;;;;4.03;1.40;;;10.00;5.90;;;;;;5030733;28;20211;-61
2022/04/10 11:07:39;;;;;;;3.03;1.10;;;9.80;7.50;;;;;;5030717;28;20279;-60
2022/04/10 11:10:10;;;;;;;4.43;1.00;;;9.70;8.70;;;;;;5030676;28;20207;-60
2022/04/10 11:12:47;;;;;;;2.93;1.40;;;9.70;10.00;;;;;;5031491;28;20264;-59
2022/04/10 11:15:19;;;;;;;4.87;1.27;;;9.70;6.00;;;;;;5030861;28;20266;-60
2022/04/10 11:17:46;;;;;;;5.93;1.10;;;9.50;4.70;;;;;;5030591;28;20612;-63
2022/04/10 11:20:14;;;;;;;1.67;1.10;;;9.60;7.10;;;;;;5031272;28;20622;-63
2022/04/10 11:22:47;;;;;;;10.20;3.77;;;9.50;3.60;;;;;;5030314;28;20220;-59
2022/04/10 11:25:18;;;;;;;4.13;1.77;;;9.30;2.40;;;;;;5032347;28;20235;-59
2022/04/10 11:27:56;;;;;;;2.37;1.13;;;9.40;1.70;;;;;;5033883;28;20234;-60
2022/04/10 11:30:24;;;;;;;12.17;4.53;;;9.30;2.20;;;;;;5034567;28;20208;-59
2022/04/10 11:32:53;;;;;;;2.60;1.70;;;9.50;8.00;;;;;;5034026;28;20214;-59
2022/04/10 11:35:22;;;;;;;7.43;2.27;;;9.80;5.10;;;;;;5034546;28;20217;-60
2022/04/10 11:37:51;;;;;;;10.70;2.70;;;10.10;14.30;;;;;;5034273;28;20228;-58
2022/04/10 11:40:24;;;;;;;4.43;1.17;;;10.20;7.50;;;;;;5033837;28;20292;-59
2022/04/10 11:42:54;;;;;;;3.50;1.40;;;10.30;6.70;;;;;;5034221;28;20266;-59
2022/04/10 11:45:21;;;;;;;2.97;1.33;;;10.30;2.10;;;;;;5033814;28;20213;-58
2022/04/10 11:47:48;;;;;;;1.30;1.10;;;10.10;3.80;;;;;;5033168;28;20241;-57
2022/04/10 11:50:15;;;;;;;3.10;1.80;;;10.20;10.50;;;;;;5034262;28;20206;-62
2022/04/10 11:52:56;;;;;;;2.20;1.10;;;10.70;27.40;;;;;;5034296;28;20628;-56
2022/04/10 11:55:30;;;;;;;1.57;1.20;;;10.90;15.90;;;;;;5033880;28;20210;-57
2022/04/10 11:57:57;;;;;;;4.73;1.30;;;10.90;6.10;;;;;;5033503;28;20313;-59
2022/04/10 12:00:24;;;;;;;4.90;1.13;;;10.90;4.40;;;;;;5034025;28;20633;-59
2022/04/10 12:02:52;;;;;;;2.60;1.40;;;10.70;1.00;;;;;;5033613;28;20730;-61
2022/04/10 12:05:19;;;;;;;1.50;1.00;;;10.20;1.00;;;;;;5033895;28;20210;-60
2022/04/10 12:07:46;;;;;;;1.93;1.10;;;10.30;1.00;;;;;;5033006;28;20782;-59
2022/04/10 12:10:18;;;;;;;3.80;1.60;;;10.50;2.30;;;;;;5033849;28;20252;-60
2022/04/10 12:12:46;;;;;;;3.20;1.40;;;10.50;2.30;;;;;;5033735;28;20217;-59
2022/04/10 12:15:19;;;;;;;1.87;1.30;;;10.70;1.00;;;;;;5033719;28;20213;-58
2022/04/10 12:17:46;;;;;;;1.97;1.10;;;10.90;1.00;;;;;;5033241;28;20269;-59
2022/04/10 12:20:13;;;;;;;1.90;0.97;;;10.70;1.00;;;;;;5033549;28;20226;-60
2022/04/10 12:22:40;;;;;;;1.33;1.07;;;10.80;2.50;;;;;;5033138;28;20224;-58
2022/04/10 12:25:08;;;;;;;2.33;1.00;;;11.10;2.00;;;;;;5033018;28;20233;-50
2022/04/10 12:27:35;;;;;;;1.57;1.10;;;11.40;5.00;;;;;;5032916;28;20234;-58
2022/04/10 12:30:09;;;;;;;1.63;0.93;;;11.70;5.00;;;;;;5033338;28;20210;-58
2022/04/10 12:32:37;;;;;;;3.47;1.07;;;11.50;2.00;;;;;;5033339;28;20206;-55
2022/04/10 12:35:08;;;;;;;1.77;1.03;;;11.10;1.00;;;;;;5033403;28;20264;-57
2022/04/10 12:37:35;;;;;;;3.23;1.10;;;11.10;1.00;;;;;;5032018;28;20230;-56
2022/04/10 12:40:04;;;;;;;2.47;0.93;;;11.00;1.00;;;;;;5033283;28;20585;-49
2022/04/10 12:42:38;;;;;;;3.43;1.30;;;10.80;1.00;;;;;;5032915;28;20867;-53
2022/04/10 12:45:08;;;;;;;1.57;1.03;;;10.50;1.00;;;;;;5033529;28;20213;-58
2022/04/10 12:47:47;;;;;;;2.70;1.10;;;10.30;1.00;;;;;;5032365;28;20237;-58
2022/04/10 12:50:17;;;;;;;3.07;1.20;;;10.50;1.00;;;;;;5034279;28;20684;-58
2022/04/10 12:52:44;;;;;;;2.00;0.83;;;10.80;1.00;;;;;;5033782;28;20211;-57
2022/04/10 12:55:22;;;;;;;1.47;1.00;;;11.30;1.00;;;;;;5033345;28;20688;-59
2022/04/10 12:58:00;;;;;;;2.30;1.10;;;11.70;1.00;;;;;;5033137;28;20222;-58
2022/04/10 13:00:30;;;;;;;4.63;1.10;;;11.80;1.00;;;;;;5033061;28;20546;-54
2022/04/10 13:02:58;;;;;;;2.70;1.17;;;12.00;2.80;;;;;;5032719;28;20669;-53
2022/04/10 13:05:25;;;;;;;3.43;1.47;;;12.20;1.30;;;;;;5033032;28;20217;-55
2022/04/10 13:08:00;;;;;;;1.33;1.03;;;12.10;1.00;;;;;;5032005;28;20222;-54
2022/04/10 13:10:28;;;;;;;3.13;1.10;;;12.20;1.00;;;;;;5032268;28;20210;-55